Time;durP1;ratioP1;P1;durP2;ratioP2;P2;SDS_P1;SDS_P2;PMS_P1;PMS_P2;Temp;Humidity;BMP_temperature;BMP_pressure;BME280_temperature;BME280_humidity;BME280_pressure;Samples;Min_cycle;Max_cycle;Signal;HPM_P1;HPM_P2
2023/04/10 00:01:34;;;;;;;13.80;9.17;;;;;;;8.38;95.19;94732.22;5111621;28;20627;-78
2023/04/10 00:04:01;;;;;;;12.67;8.87;;;;;;;8.37;93.64;94730.63;5111898;28;20188;-78
2023/04/10 00:06:28;;;;;;;13.27;8.90;;;;;;;8.40;93.06;94736.19;5111653;28;20215;-77
2023/04/10 00:08:55;;;;;;;12.60;9.07;;;;;;;8.34;93.54;94725.88;5112401;28;20189;-79
2023/04/10 00:11:22;;;;;;;12.17;8.87;;;;;;;8.35;92.62;94730.03;5113389;28;20485;-78
2023/04/10 00:13:50;;;;;;;11.87;8.87;;;;;;;8.34;93.00;94715.50;5113326;28;20203;-78
2023/04/10 00:16:16;;;;;;;12.50;8.73;;;;;;;8.37;92.42;94721.06;5113553;28;20190;-77
2023/04/10 00:18:43;;;;;;;11.90;7.87;;;;;;;8.31;92.42;94724.44;5113898;28;20215;-80
2023/04/10 00:21:10;;;;;;;13.07;8.80;;;;;;;8.35;92.51;94717.09;5113463;28;20196;-79
2023/04/10 00:23:37;;;;;;;16.23;8.63;;;;;;;8.32;91.78;94714.91;5112395;28;20191;-79
2023/04/10 00:26:04;;;;;;;11.17;8.03;;;;;;;8.34;90.97;94713.69;5112312;28;20211;-78
2023/04/10 00:28:31;;;;;;;10.73;7.83;;;;;;;8.37;90.54;94709.91;5111413;28;20195;-79
2023/04/10 00:30:59;;;;;;;10.47;7.43;;;;;;;8.32;89.23;94709.72;5111708;28;20197;-79
2023/04/10 00:33:26;;;;;;;11.37;7.87;;;;;;;8.26;88.41;94711.28;5100878;28;20188;-79
2023/04/10 00:35:52;;;;;;;11.47;7.13;;;;;;;8.22;88.16;94706.72;5110986;28;20220;-79
2023/04/10 00:38:20;;;;;;;9.83;7.07;;;;;;;8.28;86.72;94709.31;5111248;28;20872;-78
2023/04/10 00:40:46;;;;;;;9.47;7.30;;;;;;;8.27;85.31;94709.50;5111183;28;20194;-79
2023/04/10 00:43:13;;;;;;;8.47;6.40;;;;;;;8.21;84.14;94708.53;5111458;28;20188;-79
2023/04/10 00:45:41;;;;;;;9.83;7.00;;;;;;;8.26;83.29;94710.50;5111386;28;20208;-79
2023/04/10 00:48:09;;;;;;;6.63;5.33;;;;;;;8.24;81.72;94712.50;5111810;28;20223;-79
2023/04/10 00:50:36;;;;;;;7.20;5.60;;;;;;;8.23;79.96;94713.47;5111299;28;20199;-80
2023/04/10 00:53:03;;;;;;;7.63;5.77;;;;;;;8.20;79.60;94713.88;5111516;28;20288;-80
2023/04/10 00:55:30;;;;;;;8.53;6.50;;;;;;;8.29;80.55;94704.94;5110444;28;20207;-79
2023/04/10 00:57:58;;;;;;;7.50;5.90;;;;;;;8.24;80.63;94715.09;5110812;28;20199;-79
2023/04/10 01:00:25;;;;;;;9.07;5.87;;;;;;;8.23;80.45;94716.88;5110622;28;20666;-79
2023/04/10 01:02:51;;;;;;;8.90;6.20;;;;;;;8.26;80.82;94718.25;5110729;28;20192;-79
2023/04/10 01:05:20;;;;;;;8.83;6.87;;;;;;;8.27;82.83;94709.50;5111525;28;20261;-78
2023/04/10 01:07:59;;;;;;;10.60;7.03;;;;;;;8.22;85.24;94699.78;5099305;28;20681;-81
2023/04/10 01:10:36;;;;;;;10.67;7.03;;;;;;;8.25;86.61;94695.97;5100250;28;20196;-82
2023/04/10 01:13:11;;;;;;;9.63;7.13;;;;;;;8.21;88.65;94693.00;5111274;28;20631;-81
2023/04/10 01:15:44;;;;;;;9.90;6.97;;;;;;;8.18;92.74;94690.81;5111822;28;20303;-81
2023/04/10 01:18:19;;;;;;;10.27;6.90;;;;;;;8.14;94.81;94697.38;5107904;28;20180;-81
2023/04/10 01:20:47;;;;;;;11.40;8.00;;;;;;;8.17;96.92;94688.41;5111146;28;20196;-82
2023/04/10 01:23:49;;;;;;;11.53;7.90;;;;;;;8.13;98.70;94687.22;5110596;28;20671;-81
2023/04/10 01:26:18;;;;;;;11.27;8.07;;;;;;;8.19;100.00;94691.59;5110140;28;20195;-81
2023/04/10 01:29:01;;;;;;;12.10;8.07;;;;;;;8.21;100.00;94689.59;5110979;28;20195;-82
2023/04/10 01:31:35;;;;;;;11.27;7.60;;;;;;;8.19;100.00;94689.03;5111245;28;20196;-81
2023/04/10 01:34:06;;;;;;;10.17;7.27;;;;;;;8.19;100.00;94679.47;5111041;28;20665;-82
2023/04/10 01:36:37;;;;;;;11.30;7.80;;;;;;;8.22;100.00;94692.00;5111184;28;20303;-81
2023/04/10 01:39:06;;;;;;;11.70;8.03;;;;;;;8.14;100.00;94679.25;5111570;28;20196;-81
2023/04/10 01:41:34;;;;;;;11.10;7.63;;;;;;;8.22;100.00;94686.03;5100406;28;20568;-81
2023/04/10 01:44:04;;;;;;;11.90;8.03;;;;;;;8.24;100.00;94684.03;5110817;28;20192;-81
2023/04/10 01:46:32;;;;;;;11.07;7.83;;;;;;;8.17;100.00;94667.69;5111612;28;20192;-81
2023/04/10 01:49:02;;;;;;;11.20;8.60;;;;;;;8.27;100.00;94683.63;5111392;28;20220;-81
2023/04/10 01:51:31;;;;;;;10.73;7.80;;;;;;;8.29;100.00;94692.81;5112982;28;20565;-81
2023/04/10 01:53:59;;;;;;;11.37;7.80;;;;;;;8.25;100.00;94683.03;5112659;28;20192;-81
2023/04/10 01:56:27;;;;;;;10.20;7.77;;;;;;;8.31;100.00;94683.03;5110881;28;20709;-80
2023/04/10 01:58:54;;;;;;;11.57;7.87;;;;;;;8.33;100.00;94688.81;5111651;28;20192;-81
2023/04/10 02:01:23;;;;;;;11.27;7.67;;;;;;;8.31;99.90;94690.78;5111668;28;20192;-80
2023/04/10 02:03:49;;;;;;;10.53;7.73;;;;;;;8.31;99.57;94692.63;5112651;28;20192;-80
2023/04/10 02:06:24;;;;;;;11.30;8.07;;;;;;;8.26;99.57;94684.59;5111748;28;20195;-81
2023/04/10 02:08:57;;;;;;;10.83;8.17;;;;;;;8.35;98.63;94689.41;5111671;28;20176;-81
2023/04/10 02:11:31;;;;;;;12.17;8.10;;;;;;;8.30;99.16;94680.66;5111315;28;20184;-82
2023/04/10 02:14:02;;;;;;;10.13;7.53;;;;;;;8.30;98.78;94678.88;5106499;28;20677;-81
2023/04/10 02:16:32;;;;;;;9.90;7.67;;;;;;;8.28;98.75;94669.72;5110537;28;20219;-82
2023/04/10 02:19:01;;;;;;;13.13;7.87;;;;;;;8.19;99.08;94669.09;5110783;28;20193;-80
2023/04/10 02:21:28;;;;;;;9.83;7.77;;;;;;;8.19;99.15;94668.31;5113279;28;20192;-82
2023/04/10 02:23:57;;;;;;;10.20;7.33;;;;;;;8.22;97.90;94666.13;5114819;28;20614;-81
2023/04/10 02:26:23;;;;;;;9.93;7.10;;;;;;;8.28;97.93;94667.91;5114340;28;20215;-82
2023/04/10 02:28:50;;;;;;;10.57;7.27;;;;;;;8.21;97.34;94659.34;5114766;28;20319;-82
2023/04/10 02:31:17;;;;;;;12.17;7.30;;;;;;;8.20;97.47;94664.69;5115544;27;20215;-83
2023/04/10 02:33:46;;;;;;;12.47;7.70;;;;;;;8.15;98.12;94661.94;5115028;28;20193;-83
2023/04/10 02:36:13;;;;;;;11.73;7.13;;;;;;;8.18;99.25;94658.94;5111970;28;20208;-82
2023/04/10 02:38:40;;;;;;;11.97;8.13;;;;;;;8.15;99.23;94656.75;5114519;28;20199;-81
2023/04/10 02:41:07;;;;;;;11.77;8.23;;;;;;;8.22;99.82;94650.59;5114738;28;20294;-82
2023/04/10 02:43:33;;;;;;;12.87;8.37;;;;;;;8.21;100.00;94648.97;5115122;28;20754;-82
2023/04/10 02:46:00;;;;;;;13.07;8.37;;;;;;;8.22;100.00;94647.19;5114932;28;20674;-82
2023/04/10 02:48:27;;;;;;;11.60;8.17;;;;;;;8.17;100.00;94641.81;5114370;28;20222;-82
2023/04/10 02:50:57;;;;;;;13.03;8.23;;;;;;;8.12;100.00;94642.44;5114693;28;20570;-83
2023/04/10 02:53:24;;;;;;;11.80;8.43;;;;;;;8.08;100.00;94640.47;5114309;28;20196;-83
2023/04/10 02:55:53;;;;;;;15.03;9.23;;;;;;;8.07;100.00;94638.88;5114367;28;20246;-83
2023/04/10 02:58:20;;;;;;;11.63;8.30;;;;;;;8.10;100.00;94630.69;5114528;28;20292;-83
2023/04/10 03:00:49;;;;;;;13.30;8.93;;;;;;;7.97;100.00;94619.38;5114149;28;20216;-81
2023/04/10 03:03:16;;;;;;;12.20;8.87;;;;;;;8.02;100.00;94628.34;5113877;28;20275;-80
2023/04/10 03:05:48;;;;;;;12.27;9.00;;;;;;;8.07;100.00;94623.34;5113844;28;20196;-82
2023/04/10 03:08:16;;;;;;;13.47;9.00;;;;;;;8.00;100.00;94629.31;5105995;28;20214;-81
2023/04/10 03:10:44;;;;;;;11.87;8.83;;;;;;;7.98;100.00;94633.09;5113901;28;20216;-80
2023/04/10 03:13:11;;;;;;;12.73;8.87;;;;;;;7.93;100.00;94633.72;5113685;28;20189;-81
2023/04/10 03:15:38;;;;;;;11.77;8.60;;;;;;;7.86;100.00;94642.47;5113360;28;20230;-81
2023/04/10 03:18:05;;;;;;;13.40;9.17;;;;;;;7.72;100.00;94628.78;5113348;28;20196;-80
2023/04/10 03:20:32;;;;;;;12.00;9.10;;;;;;;7.68;100.00;94640.50;5112623;28;20253;-80
2023/04/10 03:23:03;;;;;;;12.90;8.97;;;;;;;7.56;100.00;94641.31;5113598;28;20249;-81
2023/04/10 03:25:34;;;;;;;13.97;9.37;;;;;;;7.52;100.00;94637.53;5113257;28;20176;-81
2023/04/10 03:28:01;;;;;;;13.50;9.03;;;;;;;7.48;100.00;94647.47;5113186;28;20181;-81
2023/04/10 03:30:28;;;;;;;12.73;8.60;;;;;;;7.48;100.00;94636.31;5113231;28;20253;-82
2023/04/10 03:32:55;;;;;;;18.37;9.97;;;;;;;7.44;100.00;94643.72;5113270;28;20196;-82
2023/04/10 03:35:24;;;;;;;15.30;10.20;;;;;;;7.49;100.00;94651.66;5113593;28;20216;-82
2023/04/10 03:37:51;;;;;;;13.93;9.60;;;;;;;7.51;100.00;94641.91;5113415;28;20218;-82
2023/04/10 03:40:18;;;;;;;15.77;9.90;;;;;;;7.57;100.00;94650.66;5112955;28;20605;-82
2023/04/10 03:42:46;;;;;;;16.33;10.30;;;;;;;7.49;100.00;94641.31;5112256;28;20554;-83
2023/04/10 03:45:13;;;;;;;20.27;10.77;;;;;;;7.49;100.00;94645.69;5112145;28;20250;-83
2023/04/10 03:47:40;;;;;;;16.57;10.13;;;;;;;7.42;100.00;94638.72;5112418;28;20195;-82
2023/04/10 03:50:07;;;;;;;15.47;10.13;;;;;;;7.47;100.00;94656.25;5113152;28;20185;-81
2023/04/10 03:52:34;;;;;;;15.87;10.67;;;;;;;7.36;100.00;94638.72;5113103;28;20188;-82
2023/04/10 03:55:01;;;;;;;15.57;10.00;;;;;;;7.38;100.00;94647.09;5112616;28;20192;-83
2023/04/10 03:57:27;;;;;;;14.90;10.20;;;;;;;7.38;100.00;94653.06;5113202;28;20601;-82
2023/04/10 03:59:56;;;;;;;15.67;10.03;;;;;;;7.37;100.00;94661.00;5112743;28;20200;-83
2023/04/10 04:02:22;;;;;;;15.10;10.03;;;;;;;7.35;100.00;94661.22;5113111;28;20192;-82
2023/04/10 04:04:49;;;;;;;20.07;11.10;;;;;;;7.29;100.00;94656.03;5112278;28;20193;-82
2023/04/10 04:07:16;;;;;;;15.87;10.47;;;;;;;7.10;100.00;94659.38;5112364;28;20279;-82
2023/04/10 04:09:43;;;;;;;18.07;10.67;;;;;;;7.14;100.00;94670.91;5112223;28;20214;-83
2023/04/10 04:12:10;;;;;;;16.77;11.27;;;;;;;7.12;100.00;94665.94;5112660;28;20195;-83
2023/04/10 04:14:37;;;;;;;17.43;10.67;;;;;;;7.09;100.00;94662.94;5112272;28;20249;-79
2023/04/10 04:17:05;;;;;;;16.97;10.63;;;;;;;7.01;100.00;94666.53;5112508;28;20788;-82
2023/04/10 04:19:32;;;;;;;16.60;10.93;;;;;;;6.91;100.00;94667.88;5112409;27;20189;-82
2023/04/10 04:21:59;;;;;;;18.23;11.57;;;;;;;6.84;100.00;94660.91;5112237;28;20211;-81
2023/04/10 04:24:26;;;;;;;17.17;11.23;;;;;;;6.84;100.00;94660.91;5112090;28;20202;-81
2023/04/10 04:26:53;;;;;;;17.20;11.23;;;;;;;6.85;100.00;94664.28;5111848;28;20208;-82
2023/04/10 04:29:20;;;;;;;17.30;11.17;;;;;;;6.80;100.00;94664.88;5112757;28;20188;-83
2023/04/10 04:31:47;;;;;;;17.73;11.47;;;;;;;6.85;100.00;94674.59;5112506;28;20390;-83
2023/04/10 04:34:18;;;;;;;18.60;12.00;;;;;;;6.84;100.00;94675.59;5112122;28;20195;-82
2023/04/10 04:36:45;;;;;;;18.57;10.93;;;;;;;6.89;100.00;94667.28;5111700;28;20262;-83
2023/04/10 04:39:12;;;;;;;21.63;11.30;;;;;;;6.97;100.00;94674.84;5112457;28;20191;-82
2023/04/10 04:41:39;;;;;;;17.67;10.77;;;;;;;7.02;100.00;94669.88;5112101;28;20200;-83
2023/04/10 04:44:07;;;;;;;16.70;10.63;;;;;;;7.10;100.00;94678.25;5111250;28;20200;-82
2023/04/10 04:46:33;;;;;;;15.73;10.47;;;;;;;7.15;100.00;94675.88;5112670;28;20691;-82
2023/04/10 04:49:00;;;;;;;15.73;10.60;;;;;;;7.21;100.00;94679.47;5111868;28;20270;-82
2023/04/10 04:51:29;;;;;;;17.70;10.17;;;;;;;7.24;100.00;94679.09;5111341;28;20196;-82
2023/04/10 04:53:56;;;;;;;16.10;10.87;;;;;;;7.26;100.00;94682.25;5111651;28;20196;-81
2023/04/10 04:56:23;;;;;;;16.80;11.47;;;;;;;7.34;100.00;94690.63;5111494;28;20219;-81
2023/04/10 04:58:49;;;;;;;16.67;10.73;;;;;;;7.39;100.00;94692.59;5111546;28;20575;-82
2023/04/10 05:01:16;;;;;;;16.87;11.57;;;;;;;7.42;100.00;94692.22;5111542;28;20196;-82
2023/04/10 05:03:43;;;;;;;17.13;11.20;;;;;;;7.45;100.00;94689.22;5111120;28;20567;-81
2023/04/10 05:06:25;;;;;;;19.63;11.33;;;;;;;7.49;100.00;94703.38;5108033;28;20249;-78
2023/04/10 05:08:53;;;;;;;17.53;11.40;;;;;;;7.53;100.00;94694.22;5104322;28;20196;-77
2023/04/10 05:11:20;;;;;;;19.30;12.23;;;;;;;7.54;100.00;94693.22;5099323;28;20197;-77
2023/04/10 05:13:47;;;;;;;19.43;13.00;;;;;;;7.65;100.00;94699.59;5119609;28;20210;-78
2023/04/10 05:16:13;;;;;;;19.73;12.43;;;;;;;7.70;100.00;94695.44;5123116;27;20222;-78
2023/04/10 05:18:41;;;;;;;21.97;13.57;;;;;;;7.77;100.00;94693.63;5120830;28;20203;-78
2023/04/10 05:21:08;;;;;;;25.83;14.07;;;;;;;7.80;100.00;94702.78;5110537;28;20200;-77
2023/04/10 05:23:35;;;;;;;20.67;14.83;;;;;;;7.72;100.00;94690.06;5111095;28;20660;-79
2023/04/10 05:26:03;;;;;;;23.90;16.03;;;;;;;7.84;100.00;94699.59;5110770;28;20195;-77
2023/04/10 05:28:30;;;;;;;22.87;14.93;;;;;;;7.92;100.00;94696.81;5111315;28;20196;-77
2023/04/10 05:30:56;;;;;;;29.23;17.87;;;;;;;7.93;100.00;94700.19;5104681;28;20213;-76
2023/04/10 05:33:23;;;;;;;26.27;16.47;;;;;;;7.86;100.00;94692.44;5091344;28;20196;-78
2023/04/10 05:35:52;;;;;;;26.63;16.87;;;;;;;7.95;100.00;94701.59;5093414;28;20220;-78
2023/04/10 05:38:18;;;;;;;27.87;17.43;;;;;;;7.97;100.00;94697.00;5090760;28;20196;-77
2023/04/10 05:40:45;;;;;;;26.70;17.37;;;;;;;7.97;100.00;94699.59;5108282;28;20564;-78
2023/04/10 05:43:13;;;;;;;26.43;16.93;;;;;;;7.98;100.00;94697.78;5111524;28;20211;-77
2023/04/10 05:45:44;;;;;;;26.30;16.83;;;;;;;8.05;100.00;94698.59;5108843;28;20197;-78
2023/04/10 05:48:11;;;;;;;25.97;16.60;;;;;;;7.95;100.00;94683.47;5090782;28;20608;-77
2023/04/10 05:50:37;;;;;;;28.17;16.87;;;;;;;8.03;100.00;94692.81;5100212;28;20184;-79
2023/04/10 05:53:04;;;;;;;29.20;16.93;;;;;;;8.03;100.00;94697.97;5111056;28;20200;-78
2023/04/10 05:55:31;;;;;;;27.60;17.10;;;;;;;8.09;100.00;94704.16;5113491;28;20275;-78
2023/04/10 05:57:58;;;;;;;29.47;16.43;;;;;;;8.10;100.00;94708.34;5114743;27;20302;-78
2023/04/10 06:00:26;;;;;;;29.00;16.77;;;;;;;8.10;100.00;94697.97;5113518;28;20200;-77
2023/04/10 06:06:09;;;;;;;30.37;18.03;;;;;;;8.24;100.00;94710.72;5105807;28;20220;-77
2023/04/10 06:08:46;;;;;;;29.57;17.93;;;;;;;8.24;100.00;94699.56;5100712;28;20196;-78
2023/04/10 06:11:13;;;;;;;25.53;17.27;;;;;;;8.33;100.00;94706.13;5112680;28;20180;-78
2023/04/10 06:13:40;;;;;;;26.17;17.37;;;;;;;8.34;100.00;94700.75;5114332;28;20207;-78
2023/04/10 06:16:09;;;;;;;27.33;17.43;;;;;;;8.41;100.00;94708.50;5114196;28;20774;-78
2023/04/10 06:18:37;;;;;;;27.13;17.50;;;;;;;8.46;100.00;94701.72;5114207;28;20729;-77
2023/04/10 06:21:04;;;;;;;25.80;16.97;;;;;;;8.57;100.00;94700.31;5112969;28;20184;-76
2023/04/10 06:23:31;;;;;;;26.03;17.20;;;;;;;8.64;100.00;94703.66;5113579;28;20644;-78
2023/04/10 06:25:58;;;;;;;28.07;17.63;;;;;;;8.70;100.00;94696.88;5114309;28;20199;-79
2023/04/10 06:28:25;;;;;;;27.10;18.10;;;;;;;8.82;100.00;94697.81;5113546;28;20645;-78
2023/04/10 06:30:52;;;;;;;28.50;17.43;;;;;;;8.90;100.00;94695.00;5111390;28;20279;-76
2023/04/10 06:33:20;;;;;;;30.23;17.10;;;;;;;8.96;100.00;94694.97;5113443;28;20199;-77
2023/04/10 06:35:47;;;;;;;25.07;16.07;;;;;;;9.09;98.14;94700.06;5112265;28;20283;-78
2023/04/10 06:38:14;;;;;;;22.90;14.90;;;;;;;9.13;96.93;94706.44;5111134;28;20188;-79
2023/04/10 06:40:41;;;;;;;24.77;15.03;;;;;;;9.13;96.93;94703.84;5112911;28;20196;-77
2023/04/10 06:43:08;;;;;;;20.13;13.33;;;;;;;9.18;96.77;94703.22;5112981;27;20597;-77
2023/04/10 06:45:35;;;;;;;19.53;13.87;;;;;;;9.21;94.05;94709.78;5113296;28;20203;-78
2023/04/10 06:48:01;;;;;;;20.60;14.23;;;;;;;9.22;94.38;94713.97;5107654;28;20269;-77
2023/04/10 06:50:30;;;;;;;21.83;13.27;;;;;;;9.28;94.86;94707.97;5111973;28;20661;-78
2023/04/10 06:52:58;;;;;;;22.13;13.70;;;;;;;9.32;92.90;94716.94;5110693;28;20204;-77
2023/04/10 06:55:26;;;;;;;21.50;13.83;;;;;;;9.34;90.93;94707.13;5113404;28;20192;-78
2023/04/10 06:57:54;;;;;;;20.53;13.63;;;;;;;9.37;92.36;94711.91;5109859;28;20223;-78
2023/04/10 07:00:35;;;;;;;19.43;12.60;;;;;;;9.47;93.00;94713.03;5108253;27;20206;-78
2023/04/10 07:03:01;;;;;;;19.97;13.10;;;;;;;9.58;91.08;94719.34;5106333;28;20196;-78
2023/04/10 07:05:30;;;;;;;23.10;13.73;;;;;;;9.65;91.32;94722.69;5112504;28;20272;-77
2023/04/10 07:07:57;;;;;;;20.57;13.60;;;;;;;9.76;91.66;94721.22;5110697;28;20196;-79
2023/04/10 07:10:24;;;;;;;25.90;14.03;;;;;;;9.78;90.63;94704.44;5110330;28;20192;-77
2023/04/10 07:12:50;;;;;;;22.27;13.37;;;;;;;9.90;89.46;94715.72;5112886;28;20196;-78
2023/04/10 07:15:18;;;;;;;22.73;12.93;;;;;;;9.98;89.66;94712.06;5112876;28;20200;-77
2023/04/10 07:17:48;;;;;;;24.97;13.43;;;;;;;9.99;89.45;94717.03;5111961;28;20285;-77
2023/04/10 07:20:15;;;;;;;19.67;12.63;;;;;;;10.11;87.70;94717.94;5108673;28;20223;-79
2023/04/10 07:22:43;;;;;;;21.90;13.10;;;;;;;10.16;88.29;94718.13;5104732;28;20239;-79
2023/04/10 07:25:10;;;;;;;20.60;13.10;;;;;;;10.20;87.96;94723.69;5112739;28;20196;-78
2023/04/10 07:27:37;;;;;;;20.33;12.83;;;;;;;10.29;86.34;94732.00;5104625;28;20227;-76
2023/04/10 07:30:05;;;;;;;18.50;12.27;;;;;;;10.14;85.69;94722.75;5112234;28;20559;-77
2023/04/10 07:32:33;;;;;;;18.07;12.57;;;;;;;10.04;86.20;94716.41;5112154;28;20267;-77
2023/04/10 07:35:00;;;;;;;20.13;12.70;;;;;;;10.10;86.52;94726.72;5107722;28;20242;-77
2023/04/10 07:37:27;;;;;;;17.50;11.80;;;;;;;10.13;86.45;94723.72;5109278;28;20302;-79
2023/04/10 07:39:55;;;;;;;23.10;12.87;;;;;;;10.15;85.50;94720.94;5109759;28;20249;-81
2023/04/10 07:42:23;;;;;;;20.13;13.30;;;;;;;10.13;85.74;94725.53;5110198;28;20188;-76
2023/04/10 07:44:50;;;;;;;19.10;13.50;;;;;;;10.12;86.26;94723.94;5112211;28;20188;-79
2023/04/10 07:47:16;;;;;;;21.30;13.67;;;;;;;10.06;86.13;94714.41;5110360;28;20220;-77
2023/04/10 07:49:43;;;;;;;20.30;13.90;;;;;;;10.04;85.98;94708.63;5110941;28;20326;-77
2023/04/10 07:52:10;;;;;;;21.53;13.20;;;;;;;10.13;85.35;94726.34;5110031;28;20194;-79
2023/04/10 07:54:37;;;;;;;22.77;13.87;;;;;;;10.36;84.23;94717.16;5112042;28;20275;-80
2023/04/10 07:57:05;;;;;;;20.33;13.33;;;;;;;10.48;82.97;94720.59;5112135;28;20208;-81
2023/04/10 07:59:32;;;;;;;20.73;13.97;;;;;;;10.49;82.49;94717.00;5110030;28;20658;-80
2023/04/10 08:01:59;;;;;;;23.77;13.93;;;;;;;10.44;83.33;94722.88;5098555;28;20662;-81
2023/04/10 08:04:25;;;;;;;23.13;13.67;;;;;;;10.58;82.36;94729.50;5112956;27;20196;-80
2023/04/10 08:06:57;;;;;;;20.17;12.67;;;;;;;10.75;82.99;94727.13;5111035;28;20196;-81
2023/04/10 08:09:24;;;;;;;23.07;13.43;;;;;;;10.76;81.71;94718.34;5108400;27;20206;-80
2023/04/10 08:11:51;;;;;;;22.97;13.10;;;;;;;10.73;81.95;94716.97;5111727;28;20696;-80
2023/04/10 08:14:19;;;;;;;21.70;13.40;;;;;;;10.80;81.54;94720.28;5112125;28;20203;-81
2023/04/10 08:16:46;;;;;;;21.63;13.87;;;;;;;10.77;81.00;94722.50;5111594;28;20227;-80
2023/04/10 08:19:13;;;;;;;22.17;14.67;;;;;;;10.81;81.58;94721.88;5110333;28;20192;-80
2023/04/10 08:21:39;;;;;;;22.20;14.27;;;;;;;10.80;82.00;94725.47;5109160;28;20192;-80
2023/04/10 08:24:06;;;;;;;22.30;14.37;;;;;;;10.83;82.24;94724.25;5111243;28;20184;-80
2023/04/10 08:26:33;;;;;;;20.23;14.07;;;;;;;10.91;81.98;94717.97;5112350;28;20211;-80
2023/04/10 08:29:00;;;;;;;22.43;14.17;;;;;;;10.93;81.50;94716.72;5112073;28;20188;-81
2023/04/10 08:31:29;;;;;;;19.00;12.37;;;;;;;10.99;80.86;94723.66;5108503;28;20196;-81
2023/04/10 08:33:56;;;;;;;18.83;12.43;;;;;;;11.00;79.13;94725.22;5112425;28;20592;-81
2023/04/10 08:36:23;;;;;;;21.57;13.13;;;;;;;11.11;78.82;94724.50;5112052;28;20192;-80
2023/04/10 08:38:50;;;;;;;21.57;13.03;;;;;;;11.22;79.42;94726.38;5111320;28;20718;-80
2023/04/10 08:41:18;;;;;;;19.27;13.17;;;;;;;11.27;78.93;94725.72;5106691;28;20203;-81
2023/04/10 08:43:45;;;;;;;20.57;13.10;;;;;;;11.26;78.37;94724.09;5112106;28;20193;-81
2023/04/10 08:46:13;;;;;;;20.17;12.40;;;;;;;11.22;79.26;94713.38;5112257;27;20635;-80
2023/04/10 08:48:47;;;;;;;16.07;11.90;;;;;;;11.28;79.10;94724.72;5111132;28;20226;-82
2023/04/10 08:51:18;;;;;;;20.30;12.57;;;;;;;11.30;78.15;94712.25;5105087;28;20183;-81
2023/04/10 08:53:48;;;;;;;19.93;12.60;;;;;;;11.42;78.45;94720.09;5111280;28;20196;-81
2023/04/10 08:56:17;;;;;;;18.33;12.50;;;;;;;11.53;77.33;94716.75;5105877;28;20675;-82
2023/04/10 08:58:45;;;;;;;24.60;11.83;;;;;;;11.62;77.27;94715.41;5111678;28;20227;-80
2023/04/10 09:01:11;;;;;;;18.10;11.93;;;;;;;11.67;77.15;94707.72;5109618;28;20709;-81
2023/04/10 09:03:38;;;;;;;18.97;13.13;;;;;;;11.75;77.58;94715.25;5111938;28;20195;-82
2023/04/10 09:06:07;;;;;;;19.80;13.77;;;;;;;11.86;77.07;94712.66;5112945;28;20196;-82
2023/04/10 09:08:35;;;;;;;22.53;14.27;;;;;;;11.94;76.34;94699.34;5111859;28;20207;-81
2023/04/10 09:11:01;;;;;;;21.00;11.90;;;;;;;11.98;74.84;94702.25;5103995;28;21732;-80
2023/04/10 09:13:39;;;;;;;15.87;11.07;;;;;;;12.11;75.16;94703.88;5110669;28;20200;-82
2023/04/10 09:16:08;;;;;;;21.77;11.23;;;;;;;12.07;74.39;94697.50;5111121;28;20196;-80
2023/04/10 09:18:46;;;;;;;18.27;10.70;;;;;;;12.12;73.61;94688.00;5109273;28;20212;-80
2023/04/10 09:21:16;;;;;;;15.87;10.90;;;;;;;12.35;73.44;94695.06;5093158;28;20193;-81
2023/04/10 09:23:44;;;;;;;17.20;11.13;;;;;;;12.43;72.91;94692.09;5110705;28;20195;-82
2023/04/10 09:26:27;;;;;;;14.77;10.90;;;;;;;12.56;73.23;94689.22;5108017;28;20191;-81
2023/04/10 09:29:01;;;;;;;15.53;11.10;;;;;;;12.41;71.50;94687.09;5106919;28;20254;-81
2023/04/10 09:31:38;;;;;;;18.63;11.53;;;;;;;12.41;72.20;94689.69;5112128;28;20183;-82
2023/04/10 09:34:12;;;;;;;15.50;10.57;;;;;;;12.45;70.78;94685.63;5114088;28;20191;-80
2023/04/10 09:36:41;;;;;;;14.43;10.50;;;;;;;12.33;71.06;94687.44;5115981;28;20634;-81
2023/04/10 09:39:10;;;;;;;16.17;10.80;;;;;;;12.40;70.50;94690.75;5116245;28;20240;-81
2023/04/10 09:41:48;;;;;;;13.80;10.53;;;;;;;12.36;70.51;94691.41;5114331;28;20559;-81
2023/04/10 09:44:18;;;;;;;14.20;11.13;;;;;;;12.35;70.51;94680.19;5116301;28;20184;-81
2023/04/10 09:46:45;;;;;;;15.87;11.13;;;;;;;12.25;71.04;94693.00;5112811;28;20287;-82
2023/04/10 09:49:12;;;;;;;12.87;10.07;;;;;;;12.27;71.79;94684.94;5115522;28;20219;-81
2023/04/10 09:51:41;;;;;;;17.57;10.70;;;;;;;12.32;71.30;94688.44;5108937;28;20196;-82
2023/04/10 09:54:08;;;;;;;16.70;10.77;;;;;;;12.39;71.40;94686.53;5116374;28;20575;-81
2023/04/10 09:56:38;;;;;;;15.93;11.20;;;;;;;12.41;71.08;94694.13;5114804;28;20223;-77
2023/04/10 09:59:07;;;;;;;16.67;10.30;;;;;;;12.34;70.15;94691.66;5114610;28;20690;-78
2023/04/10 10:01:35;;;;;;;13.10;9.43;;;;;;;12.17;68.79;94692.56;5112449;28;20200;-78
2023/04/10 10:04:03;;;;;;;12.20;9.97;;;;;;;12.17;69.60;94685.53;5114430;28;20230;-78
2023/04/10 10:06:41;;;;;;;14.23;9.47;;;;;;;12.25;69.24;94685.19;5113358;28;20199;-77
2023/04/10 10:09:10;;;;;;;11.50;8.60;;;;;;;12.51;68.54;94689.94;5114656;28;20529;-76
2023/04/10 10:11:37;;;;;;;11.80;8.90;;;;;;;12.83;67.88;94682.50;5111780;28;20560;-75
2023/04/10 10:14:09;;;;;;;11.53;9.33;;;;;;;13.27;66.69;94683.66;5114471;28;20566;-77
2023/04/10 10:16:43;;;;;;;10.60;8.60;;;;;;;13.49;65.87;94681.94;5112288;28;20188;-76
2023/04/10 10:19:16;;;;;;;10.60;8.50;;;;;;;13.71;65.00;94681.28;5114727;28;20567;-76
2023/04/10 10:21:44;;;;;;;12.00;9.00;;;;;;;13.79;64.27;94673.84;5113788;28;20600;-76
2023/04/10 10:24:13;;;;;;;11.97;9.20;;;;;;;13.98;64.49;94669.94;5111223;28;20604;-77
2023/04/10 10:26:40;;;;;;;11.43;8.93;;;;;;;14.12;63.99;94673.03;5112599;28;20200;-77
2023/04/10 10:29:09;;;;;;;13.97;9.00;;;;;;;14.11;64.54;94676.69;5114529;28;20252;-77
2023/04/10 10:31:37;;;;;;;15.97;9.53;;;;;;;13.93;64.07;94671.69;5112900;28;20196;-75
2023/04/10 10:34:07;;;;;;;12.63;9.17;;;;;;;13.92;63.02;94665.69;5114255;28;20188;-77
2023/04/10 10:36:35;;;;;;;11.47;8.83;;;;;;;13.89;64.26;94666.16;5109747;28;20181;-77
2023/04/10 10:39:24;;;;;;;12.33;9.97;;;;;;;13.80;64.46;94661.53;5113661;28;20209;-78
2023/04/10 10:41:58;;;;;;;14.63;10.23;;;;;;;13.60;66.57;94660.19;5112216;28;20215;-76
2023/04/10 10:44:40;;;;;;;13.87;11.10;;;;;;;13.35;67.45;94654.56;5113790;28;20281;-78
2023/04/10 10:47:15;;;;;;;16.20;10.47;;;;;;;13.20;67.91;94648.25;5111424;27;20214;-78
2023/04/10 10:50:00;;;;;;;14.37;10.50;;;;;;;12.81;68.68;94645.41;5110732;28;20235;-76
2023/04/10 10:52:41;;;;;;;14.57;9.90;;;;;;;12.73;69.26;94637.97;5112763;28;20651;-77
2023/04/10 10:55:35;;;;;;;15.53;10.50;;;;;;;12.66;69.08;94629.50;5112848;28;20272;-77
2023/04/10 10:58:04;;;;;;;21.07;10.70;;;;;;;12.49;69.34;94633.84;5111651;28;20714;-76
2023/04/10 11:01:05;;;;;;;13.67;9.77;;;;;;;12.29;68.44;94642.03;5110381;28;20189;-77
2023/04/10 11:03:32;;;;;;;16.23;10.10;;;;;;;12.20;69.17;94624.34;5112010;28;20198;-77
2023/04/10 11:06:01;;;;;;;13.10;9.70;;;;;;;12.17;68.55;94624.81;5113267;28;20192;-76
2023/04/10 11:08:42;;;;;;;12.47;9.50;;;;;;;12.28;66.50;94618.78;5113205;28;20199;-76
2023/04/10 11:11:14;;;;;;;15.13;8.93;;;;;;;12.59;66.71;94626.19;5113077;28;20196;-76
2023/04/10 11:13:44;;;;;;;15.07;9.03;;;;;;;13.06;65.44;94612.00;5113286;28;20278;-77
2023/04/10 11:16:11;;;;;;;11.30;8.97;;;;;;;13.74;64.50;94618.13;5110707;28;20226;-76
2023/04/10 11:19:05;;;;;;;11.37;8.70;;;;;;;14.44;62.83;94613.91;5107537;28;20227;-77
2023/04/10 11:21:32;;;;;;;10.67;8.83;;;;;;;15.12;60.96;94623.84;5113029;27;20189;-77
2023/04/10 11:24:06;;;;;;;13.20;9.60;;;;;;;15.14;60.94;94611.31;5102252;28;20215;-78
2023/04/10 11:26:44;;;;;;;10.73;8.60;;;;;;;14.71;61.69;94617.38;5110750;28;20207;-77
2023/04/10 11:29:33;;;;;;;13.20;9.97;;;;;;;14.31;63.86;94614.25;5108517;28;20259;-77
2023/04/10 11:32:01;;;;;;;12.93;9.80;;;;;;;14.01;64.37;94601.53;5111954;28;20219;-77
2023/04/10 11:34:29;;;;;;;15.17;8.90;;;;;;;13.65;63.64;94609.84;5111345;28;20207;-77
2023/04/10 11:36:56;;;;;;;11.00;9.00;;;;;;;13.36;63.84;94610.97;5112836;28;20215;-77